sensor_id;sensor_type;location;lat;lon;timestamp;temperature;humidity
24744;DHT22;12844;52.110;5.548;2022-12-26T00:01:10;16.90;51.40
24744;DHT22;12844;52.110;5.548;2022-12-26T00:03:36;16.90;51.40
24744;DHT22;12844;52.110;5.548;2022-12-26T00:06:02;16.90;51.50
24744;DHT22;12844;52.110;5.548;2022-12-26T00:08:28;16.90;51.40
24744;DHT22;12844;52.110;5.548;2022-12-26T00:10:53;16.90;51.40
24744;DHT22;12844;52.110;5.548;2022-12-26T00:13:19;16.90;51.40
24744;DHT22;12844;52.110;5.548;2022-12-26T00:15:45;16.90;51.40
24744;DHT22;12844;52.110;5.548;2022-12-26T00:18:10;16.90;51.50
24744;DHT22;12844;52.110;5.548;2022-12-26T00:20:36;16.90;51.50
24744;DHT22;12844;52.110;5.548;2022-12-26T00:23:01;16.90;51.50
24744;DHT22;12844;52.110;5.548;2022-12-26T00:25:27;16.90;51.50
24744;DHT22;12844;52.110;5.548;2022-12-26T00:27:52;16.90;51.50
24744;DHT22;12844;52.110;5.548;2022-12-26T00:30:18;16.90;51.50
24744;DHT22;12844;52.110;5.548;2022-12-26T00:32:43;16.90;51.50
24744;DHT22;12844;52.110;5.548;2022-12-26T00:35:09;16.90;51.50
24744;DHT22;12844;52.110;5.548;2022-12-26T00:37:35;16.90;51.40
24744;DHT22;12844;52.110;5.548;2022-12-26T00:40:00;16.90;51.50
24744;DHT22;12844;52.110;5.548;2022-12-26T00:42:26;16.90;51.50
24744;DHT22;12844;52.110;5.548;2022-12-26T00:44:51;16.90;51.40
24744;DHT22;12844;52.110;5.548;2022-12-26T00:47:17;16.90;51.50
24744;DHT22;12844;52.110;5.548;2022-12-26T00:49:42;16.90;51.50
24744;DHT22;12844;52.110;5.548;2022-12-26T00:52:08;16.90;51.40
24744;DHT22;12844;52.110;5.548;2022-12-26T00:54:33;16.90;51.50
24744;DHT22;12844;52.110;5.548;2022-12-26T00:56:59;16.90;51.50
24744;DHT22;12844;52.110;5.548;2022-12-26T00:59:24;16.90;51.50
24744;DHT22;12844;52.110;5.548;2022-12-26T01:01:50;16.90;51.50
24744;DHT22;12844;52.110;5.548;2022-12-26T01:04:16;16.90;51.50
24744;DHT22;12844;52.110;5.548;2022-12-26T01:06:41;16.90;51.50
24744;DHT22;12844;52.110;5.548;2022-12-26T01:09:07;16.90;51.50
24744;DHT22;12844;52.110;5.548;2022-12-26T01:11:32;16.90;51.50
24744;DHT22;12844;52.110;5.548;2022-12-26T01:14:13;16.90;51.50
24744;DHT22;12844;52.110;5.548;2022-12-26T01:16:40;16.90;51.50
24744;DHT22;12844;52.110;5.548;2022-12-26T01:19:06;16.90;51.50
24744;DHT22;12844;52.110;5.548;2022-12-26T01:21:33;16.90;52.20
24744;DHT22;12844;52.110;5.548;2022-12-26T01:23:58;16.90;51.50
24744;DHT22;12844;52.110;5.548;2022-12-26T01:26:24;16.90;51.50
24744;DHT22;12844;52.110;5.548;2022-12-26T01:28:51;16.90;51.50
24744;DHT22;12844;52.110;5.548;2022-12-26T01:31:17;16.90;51.60
24744;DHT22;12844;52.110;5.548;2022-12-26T01:33:43;16.80;51.50
24744;DHT22;12844;52.110;5.548;2022-12-26T01:36:09;16.90;51.60
24744;DHT22;12844;52.110;5.548;2022-12-26T01:38:35;16.90;51.50
24744;DHT22;12844;52.110;5.548;2022-12-26T01:41:00;16.90;51.60
24744;DHT22;12844;52.110;5.548;2022-12-26T01:43:59;16.90;51.60
24744;DHT22;12844;52.110;5.548;2022-12-26T01:46:37;16.90;51.60
24744;DHT22;12844;52.110;5.548;2022-12-26T01:49:28;16.80;51.50
24744;DHT22;12844;52.110;5.548;2022-12-26T01:52:03;16.90;51.60
24744;DHT22;12844;52.110;5.548;2022-12-26T01:54:34;16.90;51.60
24744;DHT22;12844;52.110;5.548;2022-12-26T01:57:03;16.90;51.60
24744;DHT22;12844;52.110;5.548;2022-12-26T01:59:32;16.80;51.60
24744;DHT22;12844;52.110;5.548;2022-12-26T02:02:00;16.90;51.60
24744;DHT22;12844;52.110;5.548;2022-12-26T02:04:32;16.90;51.60
24744;DHT22;12844;52.110;5.548;2022-12-26T02:07:17;16.90;51.50
24744;DHT22;12844;52.110;5.548;2022-12-26T02:09:43;16.90;51.60
24744;DHT22;12844;52.110;5.548;2022-12-26T02:12:30;16.90;51.60
24744;DHT22;12844;52.110;5.548;2022-12-26T02:14:57;16.90;51.60
24744;DHT22;12844;52.110;5.548;2022-12-26T02:17:27;16.80;52.20
24744;DHT22;12844;52.110;5.548;2022-12-26T02:20:12;16.90;51.60
24744;DHT22;12844;52.110;5.548;2022-12-26T02:31:20;16.90;51.60
24744;DHT22;12844;52.110;5.548;2022-12-26T02:34:10;16.80;51.60
24744;DHT22;12844;52.110;5.548;2022-12-26T02:37:03;16.80;51.60
24744;DHT22;12844;52.110;5.548;2022-12-26T02:45:21;16.80;51.60
24744;DHT22;12844;52.110;5.548;2022-12-26T02:48:15;16.80;51.60
24744;DHT22;12844;52.110;5.548;2022-12-26T02:51:11;16.80;51.70
24744;DHT22;12844;52.110;5.548;2022-12-26T02:57:03;16.80;51.70
24744;DHT22;12844;52.110;5.548;2022-12-26T03:05:40;16.80;51.70
24744;DHT22;12844;52.110;5.548;2022-12-26T03:08:38;16.80;51.80
24744;DHT22;12844;52.110;5.548;2022-12-26T03:11:29;16.80;51.80
24744;DHT22;12844;52.110;5.548;2022-12-26T03:14:31;16.70;51.80
24744;DHT22;12844;52.110;5.548;2022-12-26T03:17:07;16.80;51.80
24744;DHT22;12844;52.110;5.548;2022-12-26T03:22:39;16.80;51.80
24744;DHT22;12844;52.110;5.548;2022-12-26T03:25:14;16.80;51.80
24744;DHT22;12844;52.110;5.548;2022-12-26T03:27:58;16.80;51.70
24744;DHT22;12844;52.110;5.548;2022-12-26T03:30:24;16.80;52.40
24744;DHT22;12844;52.110;5.548;2022-12-26T03:33:08;16.80;51.70
24744;DHT22;12844;52.110;5.548;2022-12-26T03:35:54;16.80;51.70
24744;DHT22;12844;52.110;5.548;2022-12-26T03:38:22;16.80;51.70
24744;DHT22;12844;52.110;5.548;2022-12-26T03:41:06;16.80;51.70
24744;DHT22;12844;52.110;5.548;2022-12-26T03:47:16;16.80;52.30
24744;DHT22;12844;52.110;5.548;2022-12-26T03:50:14;16.80;51.70
24744;DHT22;12844;52.110;5.548;2022-12-26T03:53:11;16.80;51.80
24744;DHT22;12844;52.110;5.548;2022-12-26T03:56:08;16.70;51.80
24744;DHT22;12844;52.110;5.548;2022-12-26T03:59:08;16.80;51.90
24744;DHT22;12844;52.110;5.548;2022-12-26T04:01:55;16.80;51.90
24744;DHT22;12844;52.110;5.548;2022-12-26T04:04:43;16.70;51.80
24744;DHT22;12844;52.110;5.548;2022-12-26T04:07:31;16.70;51.80
24744;DHT22;12844;52.110;5.548;2022-12-26T04:10:21;16.70;51.80
24744;DHT22;12844;52.110;5.548;2022-12-26T04:13:15;16.70;51.80
24744;DHT22;12844;52.110;5.548;2022-12-26T04:16:15;16.70;51.90
24744;DHT22;12844;52.110;5.548;2022-12-26T04:19:12;16.70;51.90
24744;DHT22;12844;52.110;5.548;2022-12-26T04:22:19;16.70;51.90
24744;DHT22;12844;52.110;5.548;2022-12-26T04:25:11;16.70;51.80
24744;DHT22;12844;52.110;5.548;2022-12-26T04:27:56;16.70;51.90
24744;DHT22;12844;52.110;5.548;2022-12-26T04:30:46;16.70;51.90
24744;DHT22;12844;52.110;5.548;2022-12-26T04:33:41;16.70;51.80
24744;DHT22;12844;52.110;5.548;2022-12-26T04:36:31;16.70;52.50
24744;DHT22;12844;52.110;5.548;2022-12-26T04:39:18;16.70;52.50
24744;DHT22;12844;52.110;5.548;2022-12-26T04:42:06;16.70;51.90
24744;DHT22;12844;52.110;5.548;2022-12-26T04:44:53;16.80;51.90
24744;DHT22;12844;52.110;5.548;2022-12-26T04:47:19;16.70;51.80
24744;DHT22;12844;52.110;5.548;2022-12-26T04:49:45;16.70;51.80
24744;DHT22;12844;52.110;5.548;2022-12-26T04:52:29;16.70;51.80
24744;DHT22;12844;52.110;5.548;2022-12-26T04:55:16;16.70;51.80
24744;DHT22;12844;52.110;5.548;2022-12-26T04:57:41;16.70;51.80
24744;DHT22;12844;52.110;5.548;2022-12-26T05:00:07;16.70;51.80
24744;DHT22;12844;52.110;5.548;2022-12-26T05:02:33;16.80;51.80
24744;DHT22;12844;52.110;5.548;2022-12-26T05:05:17;16.70;51.80
24744;DHT22;12844;52.110;5.548;2022-12-26T05:08:01;16.70;51.80
24744;DHT22;12844;52.110;5.548;2022-12-26T05:10:45;16.70;51.80
24744;DHT22;12844;52.110;5.548;2022-12-26T05:13:10;16.70;51.80
24744;DHT22;12844;52.110;5.548;2022-12-26T05:15:36;16.70;51.80
24744;DHT22;12844;52.110;5.548;2022-12-26T05:18:22;16.70;51.80
24744;DHT22;12844;52.110;5.548;2022-12-26T05:21:11;16.70;51.80
24744;DHT22;12844;52.110;5.548;2022-12-26T05:23:56;16.70;51.70
24744;DHT22;12844;52.110;5.548;2022-12-26T05:26:40;16.70;51.70
24744;DHT22;12844;52.110;5.548;2022-12-26T05:29:24;16.70;51.70
24744;DHT22;12844;52.110;5.548;2022-12-26T05:31:50;16.70;51.80
24744;DHT22;12844;52.110;5.548;2022-12-26T05:34:15;16.70;51.80
24744;DHT22;12844;52.110;5.548;2022-12-26T05:36:48;16.70;51.80
24744;DHT22;12844;52.110;5.548;2022-12-26T05:39:14;16.70;51.80
24744;DHT22;12844;52.110;5.548;2022-12-26T05:41:40;16.70;51.70
24744;DHT22;12844;52.110;5.548;2022-12-26T05:44:06;16.70;51.70
24744;DHT22;12844;52.110;5.548;2022-12-26T05:46:32;16.70;51.70
24744;DHT22;12844;52.110;5.548;2022-12-26T05:48:58;16.70;52.30
24744;DHT22;12844;52.110;5.548;2022-12-26T05:51:24;16.70;51.70
24744;DHT22;12844;52.110;5.548;2022-12-26T05:53:50;16.70;51.70
24744;DHT22;12844;52.110;5.548;2022-12-26T05:56:17;16.70;51.60
24744;DHT22;12844;52.110;5.548;2022-12-26T05:58:43;16.70;51.60
24744;DHT22;12844;52.110;5.548;2022-12-26T06:01:17;16.80;51.60
24744;DHT22;12844;52.110;5.548;2022-12-26T06:03:46;16.80;51.70
24744;DHT22;12844;52.110;5.548;2022-12-26T06:06:13;16.70;51.70
24744;DHT22;12844;52.110;5.548;2022-12-26T06:08:38;16.70;51.70
24744;DHT22;12844;52.110;5.548;2022-12-26T06:11:06;16.70;51.70
24744;DHT22;12844;52.110;5.548;2022-12-26T06:13:32;16.70;51.70
24744;DHT22;12844;52.110;5.548;2022-12-26T06:15:58;16.70;51.70
24744;DHT22;12844;52.110;5.548;2022-12-26T06:18:24;16.70;51.70
24744;DHT22;12844;52.110;5.548;2022-12-26T06:20:49;16.70;51.60
24744;DHT22;12844;52.110;5.548;2022-12-26T06:23:15;16.70;51.60
24744;DHT22;12844;52.110;5.548;2022-12-26T06:25:40;16.70;51.60
24744;DHT22;12844;52.110;5.548;2022-12-26T06:28:06;16.70;51.60
24744;DHT22;12844;52.110;5.548;2022-12-26T06:30:31;16.70;51.70
24744;DHT22;12844;52.110;5.548;2022-12-26T06:32:57;16.70;51.60
24744;DHT22;12844;52.110;5.548;2022-12-26T06:35:22;16.70;51.60
24744;DHT22;12844;52.110;5.548;2022-12-26T06:37:48;16.70;51.60
24744;DHT22;12844;52.110;5.548;2022-12-26T06:40:14;16.70;51.70
24744;DHT22;12844;52.110;5.548;2022-12-26T06:42:39;16.70;51.60
24744;DHT22;12844;52.110;5.548;2022-12-26T06:45:05;16.70;51.70
24744;DHT22;12844;52.110;5.548;2022-12-26T06:47:30;16.70;51.70
24744;DHT22;12844;52.110;5.548;2022-12-26T06:49:56;16.70;51.60
24744;DHT22;12844;52.110;5.548;2022-12-26T06:52:21;16.70;51.70
24744;DHT22;12844;52.110;5.548;2022-12-26T06:54:47;16.70;51.70
24744;DHT22;12844;52.110;5.548;2022-12-26T06:57:12;16.70;51.70
24744;DHT22;12844;52.110;5.548;2022-12-26T06:59:38;16.70;51.70
24744;DHT22;12844;52.110;5.548;2022-12-26T07:02:03;16.70;51.60
24744;DHT22;12844;52.110;5.548;2022-12-26T07:04:29;16.70;51.70
24744;DHT22;12844;52.110;5.548;2022-12-26T07:06:54;16.70;51.70
24744;DHT22;12844;52.110;5.548;2022-12-26T07:09:20;16.70;51.70
24744;DHT22;12844;52.110;5.548;2022-12-26T07:11:48;16.70;51.70
24744;DHT22;12844;52.110;5.548;2022-12-26T07:14:15;16.70;51.70
24744;DHT22;12844;52.110;5.548;2022-12-26T07:16:42;16.70;51.70
24744;DHT22;12844;52.110;5.548;2022-12-26T07:19:10;16.70;51.70
24744;DHT22;12844;52.110;5.548;2022-12-26T07:21:36;16.70;51.70
24744;DHT22;12844;52.110;5.548;2022-12-26T07:24:01;16.70;51.70
24744;DHT22;12844;52.110;5.548;2022-12-26T07:26:27;16.70;52.00
24744;DHT22;12844;52.110;5.548;2022-12-26T07:28:54;16.70;51.70
24744;DHT22;12844;52.110;5.548;2022-12-26T07:31:20;16.70;51.70
24744;DHT22;12844;52.110;5.548;2022-12-26T07:33:47;16.70;51.70
24744;DHT22;12844;52.110;5.548;2022-12-26T07:36:13;16.70;51.70
24744;DHT22;12844;52.110;5.548;2022-12-26T07:38:38;16.70;51.70
24744;DHT22;12844;52.110;5.548;2022-12-26T07:41:04;16.70;51.70
24744;DHT22;12844;52.110;5.548;2022-12-26T07:43:49;16.70;51.70
24744;DHT22;12844;52.110;5.548;2022-12-26T07:46:15;16.70;51.70
24744;DHT22;12844;52.110;5.548;2022-12-26T07:48:40;16.70;51.70
24744;DHT22;12844;52.110;5.548;2022-12-26T07:51:06;16.70;51.70
24744;DHT22;12844;52.110;5.548;2022-12-26T07:53:31;16.60;51.70
24744;DHT22;12844;52.110;5.548;2022-12-26T07:56:00;16.70;51.70
24744;DHT22;12844;52.110;5.548;2022-12-26T07:58:26;16.70;51.70
24744;DHT22;12844;52.110;5.548;2022-12-26T08:00:52;16.60;51.60
24744;DHT22;12844;52.110;5.548;2022-12-26T08:03:17;16.60;51.60
24744;DHT22;12844;52.110;5.548;2022-12-26T08:05:44;16.60;51.60
24744;DHT22;12844;52.110;5.548;2022-12-26T08:08:10;16.70;51.70
24744;DHT22;12844;52.110;5.548;2022-12-26T08:10:36;16.70;51.70
24744;DHT22;12844;52.110;5.548;2022-12-26T08:13:01;16.70;51.70
24744;DHT22;12844;52.110;5.548;2022-12-26T08:15:27;16.70;51.70
24744;DHT22;12844;52.110;5.548;2022-12-26T08:17:52;16.60;51.60
24744;DHT22;12844;52.110;5.548;2022-12-26T08:20:18;16.60;51.60
24744;DHT22;12844;52.110;5.548;2022-12-26T08:22:43;16.60;51.70
24744;DHT22;12844;52.110;5.548;2022-12-26T08:25:09;16.60;51.70
24744;DHT22;12844;52.110;5.548;2022-12-26T08:27:35;16.60;51.70
24744;DHT22;12844;52.110;5.548;2022-12-26T08:30:00;16.60;51.70
24744;DHT22;12844;52.110;5.548;2022-12-26T08:32:26;16.60;51.70
24744;DHT22;12844;52.110;5.548;2022-12-26T08:34:52;16.60;51.70
24744;DHT22;12844;52.110;5.548;2022-12-26T08:37:17;16.60;51.70
24744;DHT22;12844;52.110;5.548;2022-12-26T08:39:43;16.70;51.70
24744;DHT22;12844;52.110;5.548;2022-12-26T08:42:09;16.60;51.70
24744;DHT22;12844;52.110;5.548;2022-12-26T08:44:34;16.70;51.70
24744;DHT22;12844;52.110;5.548;2022-12-26T08:47:00;16.70;51.70
24744;DHT22;12844;52.110;5.548;2022-12-26T08:49:25;16.60;51.70
24744;DHT22;12844;52.110;5.548;2022-12-26T08:51:51;16.70;51.70
24744;DHT22;12844;52.110;5.548;2022-12-26T08:54:16;16.70;51.70
24744;DHT22;12844;52.110;5.548;2022-12-26T08:56:42;16.70;51.70
24744;DHT22;12844;52.110;5.548;2022-12-26T08:59:08;16.70;51.70
24744;DHT22;12844;52.110;5.548;2022-12-26T09:01:33;16.70;51.70
24744;DHT22;12844;52.110;5.548;2022-12-26T09:04:02;16.70;51.60
24744;DHT22;12844;52.110;5.548;2022-12-26T09:06:30;16.70;51.70
24744;DHT22;12844;52.110;5.548;2022-12-26T09:08:58;16.70;51.70
24744;DHT22;12844;52.110;5.548;2022-12-26T09:11:25;16.70;51.60
24744;DHT22;12844;52.110;5.548;2022-12-26T09:13:55;16.70;51.60
24744;DHT22;12844;52.110;5.548;2022-12-26T09:16:23;16.70;51.60
24744;DHT22;12844;52.110;5.548;2022-12-26T09:18:54;16.70;51.70
24744;DHT22;12844;52.110;5.548;2022-12-26T09:21:19;16.70;51.70
24744;DHT22;12844;52.110;5.548;2022-12-26T09:23:45;16.70;51.70
24744;DHT22;12844;52.110;5.548;2022-12-26T09:26:13;16.60;51.60
24744;DHT22;12844;52.110;5.548;2022-12-26T09:28:39;16.70;51.60
24744;DHT22;12844;52.110;5.548;2022-12-26T09:31:10;16.70;51.70
24744;DHT22;12844;52.110;5.548;2022-12-26T09:33:36;16.70;51.70
24744;DHT22;12844;52.110;5.548;2022-12-26T09:36:12;16.70;51.70
24744;DHT22;12844;52.110;5.548;2022-12-26T09:38:38;16.70;51.70
24744;DHT22;12844;52.110;5.548;2022-12-26T09:44:02;16.70;51.70
24744;DHT22;12844;52.110;5.548;2022-12-26T09:49:18;16.60;51.60
24744;DHT22;12844;52.110;5.548;2022-12-26T09:51:54;16.60;51.70
24744;DHT22;12844;52.110;5.548;2022-12-26T09:54:34;16.60;51.70
24744;DHT22;12844;52.110;5.548;2022-12-26T09:57:03;16.60;51.60
24744;DHT22;12844;52.110;5.548;2022-12-26T09:59:36;16.60;51.70
24744;DHT22;12844;52.110;5.548;2022-12-26T10:02:15;16.60;51.70
24744;DHT22;12844;52.110;5.548;2022-12-26T10:04:42;16.60;51.60
24744;DHT22;12844;52.110;5.548;2022-12-26T10:07:27;16.60;51.60
24744;DHT22;12844;52.110;5.548;2022-12-26T10:10:10;16.60;51.60
24744;DHT22;12844;52.110;5.548;2022-12-26T10:18:13;16.60;51.60
24744;DHT22;12844;52.110;5.548;2022-12-26T10:23:31;16.60;51.60
24744;DHT22;12844;52.110;5.548;2022-12-26T10:26:07;16.60;51.70
24744;DHT22;12844;52.110;5.548;2022-12-26T10:29:01;16.60;51.70
24744;DHT22;12844;52.110;5.548;2022-12-26T10:34:14;16.60;51.70
24744;DHT22;12844;52.110;5.548;2022-12-26T10:36:45;16.60;51.70
24744;DHT22;12844;52.110;5.548;2022-12-26T10:44:50;16.60;51.60
24744;DHT22;12844;52.110;5.548;2022-12-26T10:47:23;16.60;51.70
24744;DHT22;12844;52.110;5.548;2022-12-26T10:49:50;16.60;51.70
24744;DHT22;12844;52.110;5.548;2022-12-26T10:52:18;16.60;51.70
24744;DHT22;12844;52.110;5.548;2022-12-26T10:54:52;16.60;51.70
24744;DHT22;12844;52.110;5.548;2022-12-26T10:57:18;16.60;51.60
24744;DHT22;12844;52.110;5.548;2022-12-26T10:59:50;16.60;51.60
24744;DHT22;12844;52.110;5.548;2022-12-26T11:02:26;16.60;51.60
24744;DHT22;12844;52.110;5.548;2022-12-26T11:07:37;16.60;51.60
24744;DHT22;12844;52.110;5.548;2022-12-26T11:10:13;16.60;51.60
24744;DHT22;12844;52.110;5.548;2022-12-26T11:12:53;16.60;51.60
24744;DHT22;12844;52.110;5.548;2022-12-26T11:15:38;16.60;51.60
24744;DHT22;12844;52.110;5.548;2022-12-26T11:18:29;16.60;51.60
24744;DHT22;12844;52.110;5.548;2022-12-26T11:21:18;16.60;51.60
24744;DHT22;12844;52.110;5.548;2022-12-26T11:23:45;16.60;51.60
24744;DHT22;12844;52.110;5.548;2022-12-26T11:26:28;16.60;51.70
24744;DHT22;12844;52.110;5.548;2022-12-26T11:29:13;16.60;51.70
24744;DHT22;12844;52.110;5.548;2022-12-26T11:31:41;16.60;51.70
24744;DHT22;12844;52.110;5.548;2022-12-26T11:34:10;16.60;51.80
24744;DHT22;12844;52.110;5.548;2022-12-26T11:36:44;16.60;51.80
24744;DHT22;12844;52.110;5.548;2022-12-26T11:39:26;16.60;51.70
24744;DHT22;12844;52.110;5.548;2022-12-26T11:41:53;16.70;51.80
24744;DHT22;12844;52.110;5.548;2022-12-26T11:44:27;16.60;51.80
24744;DHT22;12844;52.110;5.548;2022-12-26T11:47:00;16.70;51.90
24744;DHT22;12844;52.110;5.548;2022-12-26T11:52:02;16.60;51.80
24744;DHT22;12844;52.110;5.548;2022-12-26T11:54:38;16.70;51.90
24744;DHT22;12844;52.110;5.548;2022-12-26T11:57:17;16.70;51.90
24744;DHT22;12844;52.110;5.548;2022-12-26T11:59:44;16.70;51.90
24744;DHT22;12844;52.110;5.548;2022-12-26T12:04:39;16.70;51.90
24744;DHT22;12844;52.110;5.548;2022-12-26T12:07:17;16.70;51.90
24744;DHT22;12844;52.110;5.548;2022-12-26T12:10:26;16.70;51.90
24744;DHT22;12844;52.110;5.548;2022-12-26T12:13:14;16.70;51.90
24744;DHT22;12844;52.110;5.548;2022-12-26T12:15:49;16.70;51.90
24744;DHT22;12844;52.110;5.548;2022-12-26T12:21:43;16.80;52.00
24744;DHT22;12844;52.110;5.548;2022-12-26T12:24:31;16.70;51.90
24744;DHT22;12844;52.110;5.548;2022-12-26T12:27:20;16.70;51.90
24744;DHT22;12844;52.110;5.548;2022-12-26T12:33:13;16.70;51.90
24744;DHT22;12844;52.110;5.548;2022-12-26T12:35:46;16.70;51.90
24744;DHT22;12844;52.110;5.548;2022-12-26T12:38:41;16.70;52.00
24744;DHT22;12844;52.110;5.548;2022-12-26T12:55:39;16.80;51.90
24744;DHT22;12844;52.110;5.548;2022-12-26T13:01:18;16.80;51.90
24744;DHT22;12844;52.110;5.548;2022-12-26T13:04:01;16.80;52.00
24744;DHT22;12844;52.110;5.548;2022-12-26T13:06:35;16.70;51.90
24744;DHT22;12844;52.110;5.548;2022-12-26T13:09:17;16.70;51.90
24744;DHT22;12844;52.110;5.548;2022-12-26T13:11:55;16.80;51.90
24744;DHT22;12844;52.110;5.548;2022-12-26T13:14:25;16.80;51.80
24744;DHT22;12844;52.110;5.548;2022-12-26T13:16:56;16.80;51.80
24744;DHT22;12844;52.110;5.548;2022-12-26T13:19:25;16.80;51.80
24744;DHT22;12844;52.110;5.548;2022-12-26T13:21:55;16.80;51.70
24744;DHT22;12844;52.110;5.548;2022-12-26T13:29:34;16.80;51.80
24744;DHT22;12844;52.110;5.548;2022-12-26T13:32:01;16.80;51.80
24744;DHT22;12844;52.110;5.548;2022-12-26T13:34:29;16.80;51.70
24744;DHT22;12844;52.110;5.548;2022-12-26T13:36:56;16.80;51.70
24744;DHT22;12844;52.110;5.548;2022-12-26T13:41:53;16.80;51.70
24744;DHT22;12844;52.110;5.548;2022-12-26T13:44:38;16.80;51.60
24744;DHT22;12844;52.110;5.548;2022-12-26T13:47:04;16.80;51.60
24744;DHT22;12844;52.110;5.548;2022-12-26T13:49:37;16.80;51.60
24744;DHT22;12844;52.110;5.548;2022-12-26T13:57:46;16.80;51.70
24744;DHT22;12844;52.110;5.548;2022-12-26T14:00:21;16.90;51.60
24744;DHT22;12844;52.110;5.548;2022-12-26T14:03:09;16.80;51.70
24744;DHT22;12844;52.110;5.548;2022-12-26T14:08:21;16.80;51.60
24744;DHT22;12844;52.110;5.548;2022-12-26T14:13:51;16.80;51.60
24744;DHT22;12844;52.110;5.548;2022-12-26T14:19:48;16.90;51.60
24744;DHT22;12844;52.110;5.548;2022-12-26T14:31:16;16.80;51.60
24744;DHT22;12844;52.110;5.548;2022-12-26T14:36:56;16.80;51.70
24744;DHT22;12844;52.110;5.548;2022-12-26T14:39:37;16.80;51.60
24744;DHT22;12844;52.110;5.548;2022-12-26T14:42:12;16.80;51.70
24744;DHT22;12844;52.110;5.548;2022-12-26T14:44:59;16.80;51.70
24744;DHT22;12844;52.110;5.548;2022-12-26T14:47:44;16.80;51.70
24744;DHT22;12844;52.110;5.548;2022-12-26T15:09:55;16.80;51.50
24744;DHT22;12844;52.110;5.548;2022-12-26T15:12:55;16.80;51.60
24744;DHT22;12844;52.110;5.548;2022-12-26T15:15:30;16.80;51.60
24744;DHT22;12844;52.110;5.548;2022-12-26T15:20:55;16.80;51.50
24744;DHT22;12844;52.110;5.548;2022-12-26T15:26:35;16.70;51.50
24744;DHT22;12844;52.110;5.548;2022-12-26T15:29:30;16.70;51.20
24744;DHT22;12844;52.110;5.548;2022-12-26T15:32:19;16.70;51.20
24744;DHT22;12844;52.110;5.548;2022-12-26T15:35:13;16.70;51.20
24744;DHT22;12844;52.110;5.548;2022-12-26T15:40:23;16.70;51.20
24744;DHT22;12844;52.110;5.548;2022-12-26T15:45:47;16.70;51.20
24744;DHT22;12844;52.110;5.548;2022-12-26T15:48:51;16.70;51.30
24744;DHT22;12844;52.110;5.548;2022-12-26T15:57:04;16.70;51.30
24744;DHT22;12844;52.110;5.548;2022-12-26T16:00:11;16.80;51.20
24744;DHT22;12844;52.110;5.548;2022-12-26T16:02:54;16.70;51.20
24744;DHT22;12844;52.110;5.548;2022-12-26T16:08:33;16.70;51.30
24744;DHT22;12844;52.110;5.548;2022-12-26T16:11:15;16.70;51.30
24744;DHT22;12844;52.110;5.548;2022-12-26T16:13:59;16.70;51.40
24744;DHT22;12844;52.110;5.548;2022-12-26T16:16:28;16.70;51.30
24744;DHT22;12844;52.110;5.548;2022-12-26T16:18:54;16.70;51.40
24744;DHT22;12844;52.110;5.548;2022-12-26T16:21:22;16.60;51.30
24744;DHT22;12844;52.110;5.548;2022-12-26T16:24:09;16.70;51.30
24744;DHT22;12844;52.110;5.548;2022-12-26T16:26:42;16.70;51.30
24744;DHT22;12844;52.110;5.548;2022-12-26T16:29:14;16.70;51.30
24744;DHT22;12844;52.110;5.548;2022-12-26T16:31:40;16.70;51.30
24744;DHT22;12844;52.110;5.548;2022-12-26T16:34:06;16.70;51.20
24744;DHT22;12844;52.110;5.548;2022-12-26T16:36:32;16.70;51.30
24744;DHT22;12844;52.110;5.548;2022-12-26T16:39:00;16.70;51.20
24744;DHT22;12844;52.110;5.548;2022-12-26T16:41:31;16.70;51.30
24744;DHT22;12844;52.110;5.548;2022-12-26T16:44:22;16.60;51.20
24744;DHT22;12844;52.110;5.548;2022-12-26T16:46:51;16.70;51.20
24744;DHT22;12844;52.110;5.548;2022-12-26T16:49:23;16.60;51.30
24744;DHT22;12844;52.110;5.548;2022-12-26T16:51:50;16.60;51.40
24744;DHT22;12844;52.110;5.548;2022-12-26T16:59:45;16.80;51.80
24744;DHT22;12844;52.110;5.548;2022-12-26T17:02:21;17.00;51.70
24744;DHT22;12844;52.110;5.548;2022-12-26T17:04:51;17.20;52.30
24744;DHT22;12844;52.110;5.548;2022-12-26T17:07:18;17.40;51.60
24744;DHT22;12844;52.110;5.548;2022-12-26T17:09:47;17.60;51.40
24744;DHT22;12844;52.110;5.548;2022-12-26T17:12:23;17.80;51.40
24744;DHT22;12844;52.110;5.548;2022-12-26T17:14:50;18.10;51.20
24744;DHT22;12844;52.110;5.548;2022-12-26T17:19:48;18.30;50.90
24744;DHT22;12844;52.110;5.548;2022-12-26T17:24:43;18.50;50.60
24744;DHT22;12844;52.110;5.548;2022-12-26T17:27:23;18.60;50.40
24744;DHT22;12844;52.110;5.548;2022-12-26T17:29:55;18.60;50.20
24744;DHT22;12844;52.110;5.548;2022-12-26T17:32:35;18.60;50.00
24744;DHT22;12844;52.110;5.548;2022-12-26T17:35:09;18.70;49.90
24744;DHT22;12844;52.110;5.548;2022-12-26T17:37:35;18.60;49.90
24744;DHT22;12844;52.110;5.548;2022-12-26T17:40:17;18.60;50.00
24744;DHT22;12844;52.110;5.548;2022-12-26T17:42:47;18.50;50.10
24744;DHT22;12844;52.110;5.548;2022-12-26T17:45:20;18.50;50.10
24744;DHT22;12844;52.110;5.548;2022-12-26T17:47:46;18.40;50.20
24744;DHT22;12844;52.110;5.548;2022-12-26T17:50:12;18.40;50.20
24744;DHT22;12844;52.110;5.548;2022-12-26T17:52:39;18.30;50.10
24744;DHT22;12844;52.110;5.548;2022-12-26T17:55:12;18.30;50.10
24744;DHT22;12844;52.110;5.548;2022-12-26T17:57:38;18.30;50.10
24744;DHT22;12844;52.110;5.548;2022-12-26T18:00:16;18.20;50.10
24744;DHT22;12844;52.110;5.548;2022-12-26T18:02:41;18.20;50.00
24744;DHT22;12844;52.110;5.548;2022-12-26T18:05:07;18.20;50.00
24744;DHT22;12844;52.110;5.548;2022-12-26T18:07:33;18.20;50.00
24744;DHT22;12844;52.110;5.548;2022-12-26T18:09:59;18.20;50.00
24744;DHT22;12844;52.110;5.548;2022-12-26T18:12:25;18.10;50.00
24744;DHT22;12844;52.110;5.548;2022-12-26T18:14:51;18.10;49.90
24744;DHT22;12844;52.110;5.548;2022-12-26T18:17:16;18.10;49.90
24744;DHT22;12844;52.110;5.548;2022-12-26T18:19:46;18.00;50.00
24744;DHT22;12844;52.110;5.548;2022-12-26T18:22:15;18.00;50.00
24744;DHT22;12844;52.110;5.548;2022-12-26T18:24:41;18.00;50.00
24744;DHT22;12844;52.110;5.548;2022-12-26T18:27:15;17.90;50.10
24744;DHT22;12844;52.110;5.548;2022-12-26T18:29:41;17.90;50.20
24744;DHT22;12844;52.110;5.548;2022-12-26T18:32:20;17.80;50.20
24744;DHT22;12844;52.110;5.548;2022-12-26T18:34:46;17.80;50.20
24744;DHT22;12844;52.110;5.548;2022-12-26T18:37:12;17.80;50.20
24744;DHT22;12844;52.110;5.548;2022-12-26T18:39:37;17.70;50.30
24744;DHT22;12844;52.110;5.548;2022-12-26T18:42:05;17.70;50.30
24744;DHT22;12844;52.110;5.548;2022-12-26T18:44:30;17.70;50.40
24744;DHT22;12844;52.110;5.548;2022-12-26T18:46:56;17.70;50.40
24744;DHT22;12844;52.110;5.548;2022-12-26T18:49:21;17.60;50.30
24744;DHT22;12844;52.110;5.548;2022-12-26T18:51:47;17.60;50.40
24744;DHT22;12844;52.110;5.548;2022-12-26T18:54:12;17.60;50.40